Terminal Aerodrome Forecast
Issued by NWS

Home | Current Version | Previous Version | Text Only | Print | Product List | Glossary On
Versions: 1 2 3 4 5 6 7 8 9 10 11 12 13 14 15 16
000
FTUS43 KMQT 191120
TAFCMX
TAF
KCMX 191120Z 1912/2012 10012KT P6SM BKN110 WS010/16040KT
     FM191400 10013G18KT P6SM BKN070
     FM192000 11013KT P6SM BKN050
     FM200200 09006KT P6SM -SHRA BKN040=

USA.gov is the U.S. government's official web portal to all federal, state and local government web resources and services.